Time;durP1;ratioP1;P1;durP2;ratioP2;P2;SDS_P1;SDS_P2;PMS_P1;PMS_P2;Temp;Humidity;BMP_temperature;BMP_pressure;BME280_temperature;BME280_humidity;BME280_pressure;Samples;Min_cycle;Max_cycle;Signal;HPM_P1;HPM_P2
2021/04/11 00:00:19;;;;;;;13.83;9.73;;;6.80;99.90;;;;;;4987224;28;20188;-79
2021/04/11 00:02:45;;;;;;;13.67;9.90;;;6.70;99.90;;;;;;4985725;28;20203;-79
2021/04/11 00:05:13;;;;;;;16.43;10.17;;;6.70;99.90;;;;;;5002255;28;20541;-80
2021/04/11 00:07:38;;;;;;;13.60;10.07;;;6.70;99.90;;;;;;5002109;28;20275;-79
2021/04/11 00:10:07;;;;;;;15.00;9.90;;;6.70;99.90;;;;;;4985598;28;20761;-79
2021/04/11 00:12:33;;;;;;;13.93;9.90;;;6.70;99.90;;;;;;4985522;28;20207;-79
2021/04/11 00:14:59;;;;;;;15.43;11.00;;;6.70;99.90;;;;;;4985167;28;20180;-79
2021/04/11 00:17:24;;;;;;;14.43;10.73;;;6.70;99.90;;;;;;4986191;28;20183;-80
2021/04/11 00:19:50;;;;;;;14.63;9.10;;;6.70;99.90;;;;;;4986034;28;20512;-79
2021/04/11 00:22:15;;;;;;;15.10;11.27;;;6.70;99.90;;;;;;4985039;28;21012;-79
2021/04/11 00:24:41;;;;;;;16.77;10.93;;;6.70;99.90;;;;;;4985531;28;20611;-79
2021/04/11 00:27:07;;;;;;;14.10;9.67;;;6.80;99.90;;;;;;5002064;28;20188;-79
2021/04/11 00:29:32;;;;;;;16.80;11.90;;;6.80;99.90;;;;;;4986610;28;20279;-79
2021/04/11 00:31:58;;;;;;;15.33;10.73;;;6.70;99.90;;;;;;4987222;28;20238;-79
2021/04/11 00:34:23;;;;;;;17.60;12.03;;;6.70;99.90;;;;;;4986579;28;20200;-79
2021/04/11 00:36:50;;;;;;;18.00;12.30;;;6.70;99.90;;;;;;4986555;28;20203;-79
2021/04/11 00:39:15;;;;;;;16.50;11.20;;;6.70;99.90;;;;;;4986542;28;20208;-80
2021/04/11 00:41:47;;;;;;;14.77;11.13;;;6.70;99.90;;;;;;4985781;28;20203;-80
2021/04/11 00:44:13;;;;;;;16.30;11.10;;;6.70;99.90;;;;;;4984902;28;20191;-79
2021/04/11 00:47:04;;;;;;;17.03;12.50;;;6.70;99.90;;;;;;4984707;28;20187;-79
2021/04/11 00:49:44;;;;;;;16.30;11.30;;;6.70;99.90;;;;;;4985669;28;20200;-79
2021/04/11 00:52:13;;;;;;;16.63;11.43;;;6.70;99.90;;;;;;4984743;28;20204;-79
2021/04/11 00:54:40;;;;;;;13.97;10.30;;;6.70;99.90;;;;;;4985255;28;20574;-80
2021/04/11 00:57:07;;;;;;;19.03;11.83;;;6.60;99.90;;;;;;4986609;28;20654;-79
2021/04/11 00:59:33;;;;;;;16.17;10.93;;;6.70;99.90;;;;;;5001162;28;20690;-79
2021/04/11 01:01:59;;;;;;;16.27;11.80;;;6.60;99.90;;;;;;4984338;28;20176;-79
2021/04/11 01:04:25;;;;;;;16.80;12.40;;;6.70;99.90;;;;;;4984000;28;20191;-79
2021/04/11 01:06:57;;;;;;;17.23;12.37;;;6.70;99.90;;;;;;4985625;28;20187;-79
2021/04/11 01:09:29;;;;;;;22.57;14.07;;;6.70;99.90;;;;;;4984201;28;20230;-79
2021/04/11 01:11:58;;;;;;;17.97;11.77;;;6.70;99.90;;;;;;4984544;28;20184;-80
2021/04/11 01:14:24;;;;;;;16.70;11.93;;;6.70;99.90;;;;;;4984941;28;20184;-79
2021/04/11 01:16:50;;;;;;;18.83;12.90;;;6.70;99.90;;;;;;5001013;28;20277;-80
2021/04/11 01:19:21;;;;;;;19.80;13.43;;;6.80;99.90;;;;;;4984622;28;20252;-79
2021/04/11 01:22:12;;;;;;;17.40;12.10;;;6.70;99.90;;;;;;4984624;28;20180;-79
2021/04/11 01:24:44;;;;;;;14.93;12.30;;;6.80;99.90;;;;;;4985421;28;20715;-79
2021/04/11 01:27:14;;;;;;;16.80;11.23;;;6.80;99.90;;;;;;4986208;28;20216;-80
2021/04/11 01:29:41;;;;;;;22.40;12.77;;;6.70;99.90;;;;;;5001013;28;20717;-79
2021/04/11 01:32:08;;;;;;;14.73;10.97;;;6.80;99.90;;;;;;4985969;28;20211;-79
2021/04/11 01:34:35;;;;;;;18.63;12.70;;;6.70;99.90;;;;;;4984406;28;20181;-79
2021/04/11 01:37:03;;;;;;;17.77;12.93;;;6.70;99.90;;;;;;5000477;28;20184;-80
2021/04/11 01:39:31;;;;;;;16.97;11.83;;;6.70;99.90;;;;;;4984153;28;20196;-80
2021/04/11 01:41:57;;;;;;;21.37;14.57;;;6.70;99.90;;;;;;4983792;28;20188;-79
2021/04/11 01:44:29;;;;;;;16.73;11.17;;;6.80;99.90;;;;;;4984678;28;20553;-79
2021/04/11 01:46:56;;;;;;;20.77;12.47;;;6.80;99.90;;;;;;4984412;28;21199;-79
2021/04/11 01:49:23;;;;;;;18.80;12.23;;;6.70;99.90;;;;;;5000877;28;20215;-79
2021/04/11 01:51:53;;;;;;;20.60;13.63;;;6.70;99.90;;;;;;4984180;28;20303;-80
2021/04/11 01:54:25;;;;;;;16.47;11.03;;;6.70;99.90;;;;;;4983799;28;20211;-79
2021/04/11 01:56:51;;;;;;;16.13;12.63;;;6.70;99.90;;;;;;5000949;28;20188;-80
2021/04/11 01:59:28;;;;;;;20.20;13.93;;;6.70;99.90;;;;;;4984339;28;20208;-80
2021/04/11 02:01:54;;;;;;;15.17;12.90;;;6.70;99.90;;;;;;5000706;28;20180;-80
2021/04/11 02:04:21;;;;;;;20.03;13.03;;;6.80;99.90;;;;;;4984217;28;20188;-79
2021/04/11 02:06:58;;;;;;;20.50;14.00;;;6.80;99.90;;;;;;4987515;28;20251;-81
2021/04/11 02:09:31;;;;;;;17.90;13.17;;;6.80;99.90;;;;;;4989981;28;20223;-79
2021/04/11 02:11:59;;;;;;;17.20;13.00;;;6.80;99.90;;;;;;4989313;28;20743;-80
2021/04/11 02:14:25;;;;;;;22.03;13.97;;;6.80;99.90;;;;;;5004522;28;20270;-80
2021/04/11 02:16:51;;;;;;;19.80;13.73;;;6.70;99.90;;;;;;5003968;28;20185;-79
2021/04/11 02:19:20;;;;;;;18.37;13.00;;;6.80;99.90;;;;;;5004461;28;20214;-80
2021/04/11 02:21:51;;;;;;;17.83;11.93;;;6.70;99.90;;;;;;4987617;28;20176;-79
2021/04/11 02:24:17;;;;;;;19.43;12.90;;;6.80;99.90;;;;;;4989077;28;21154;-80
2021/04/11 02:26:44;;;;;;;19.60;15.37;;;6.80;99.90;;;;;;4987831;28;20180;-79
2021/04/11 02:29:20;;;;;;;19.80;14.67;;;6.80;99.90;;;;;;4989358;28;20281;-80
2021/04/11 02:31:46;;;;;;;20.97;13.83;;;6.80;99.90;;;;;;4987642;28;20275;-80
2021/04/11 02:34:20;;;;;;;20.33;12.27;;;6.80;99.90;;;;;;5003891;28;20190;-79
2021/04/11 02:36:49;;;;;;;19.77;13.20;;;6.80;99.90;;;;;;4988362;28;20190;-80
2021/04/11 02:39:21;;;;;;;21.63;13.43;;;6.80;99.90;;;;;;4989170;28;20310;-80
2021/04/11 02:41:48;;;;;;;18.97;12.53;;;6.80;99.90;;;;;;4988531;28;20210;-80
2021/04/11 02:44:14;;;;;;;19.97;14.37;;;6.90;99.90;;;;;;4988972;28;20201;-80
2021/04/11 02:46:42;;;;;;;19.17;13.53;;;6.80;99.90;;;;;;4987207;28;20192;-80
2021/04/11 02:49:19;;;;;;;17.93;12.60;;;6.80;99.90;;;;;;4988551;28;20578;-80
2021/04/11 02:51:46;;;;;;;20.17;13.10;;;6.90;99.90;;;;;;4987490;28;20180;-80
2021/04/11 02:54:14;;;;;;;18.03;12.90;;;6.90;99.90;;;;;;4987794;28;20277;-80
2021/04/11 02:56:42;;;;;;;24.83;15.43;;;6.80;99.90;;;;;;4988301;28;20191;-80
2021/04/11 02:59:10;;;;;;;21.43;13.50;;;6.80;99.90;;;;;;4988747;28;20221;-80
2021/04/11 03:01:39;;;;;;;21.00;14.20;;;6.90;99.90;;;;;;5003718;28;20682;-80
2021/04/11 03:04:06;;;;;;;18.77;13.30;;;7.00;99.90;;;;;;4987085;28;20192;-80
2021/04/11 03:06:38;;;;;;;21.90;14.03;;;6.90;99.90;;;;;;4987401;28;20259;-80
2021/04/11 03:09:09;;;;;;;17.63;13.43;;;6.90;99.90;;;;;;5018856;22;20239;-79
2021/04/11 03:11:44;;;;;;;20.37;13.73;;;6.90;99.90;;;;;;4993752;28;20218;-79
2021/04/11 03:14:13;;;;;;;21.20;13.30;;;6.90;99.90;;;;;;4988847;28;20727;-78
2021/04/11 03:16:40;;;;;;;20.10;13.53;;;6.90;99.90;;;;;;4986253;28;20176;-80
2021/04/11 03:19:07;;;;;;;22.00;13.93;;;6.90;99.90;;;;;;4987995;28;20962;-77
2021/04/11 03:21:35;;;;;;;19.37;13.43;;;6.90;99.90;;;;;;4986712;28;20180;-78
2021/04/11 03:24:04;;;;;;;21.97;14.93;;;6.90;99.90;;;;;;4986701;28;21326;-79
2021/04/11 03:27:06;;;;;;;18.23;12.73;;;6.90;99.90;;;;;;4986432;28;20177;-79
2021/04/11 03:29:48;;;;;;;23.80;13.33;;;6.80;99.90;;;;;;4987829;28;20206;-79
2021/04/11 03:32:23;;;;;;;18.93;13.07;;;6.80;99.90;;;;;;4988040;28;20655;-79
2021/04/11 03:34:52;;;;;;;22.27;13.97;;;6.80;99.90;;;;;;4985869;28;20171;-79
2021/04/11 03:37:20;;;;;;;21.83;14.17;;;6.80;99.90;;;;;;4986214;28;20176;-79
2021/04/11 03:39:47;;;;;;;21.60;13.90;;;6.80;99.90;;;;;;4985526;28;20200;-78
2021/04/11 03:42:16;;;;;;;22.67;14.23;;;6.80;99.90;;;;;;4987034;28;20188;-78
2021/04/11 03:44:42;;;;;;;20.77;13.83;;;6.80;99.90;;;;;;4986173;28;20673;-78
2021/04/11 03:47:13;;;;;;;19.60;13.40;;;6.90;99.90;;;;;;5003331;28;20199;-78
2021/04/11 03:49:53;;;;;;;19.47;13.57;;;6.90;99.90;;;;;;4986815;28;20204;-78
2021/04/11 03:52:27;;;;;;;16.77;13.20;;;6.80;99.90;;;;;;4986922;28;20200;-78
2021/04/11 03:54:54;;;;;;;20.87;13.53;;;6.80;99.90;;;;;;4985740;28;20181;-77
2021/04/11 03:57:28;;;;;;;18.90;12.70;;;6.80;99.90;;;;;;4985976;28;20191;-80
2021/04/11 04:00:05;;;;;;;22.07;14.47;;;6.80;99.90;;;;;;4985540;28;20345;-78
2021/04/11 04:02:35;;;;;;;21.27;14.77;;;6.90;99.90;;;;;;4987871;28;20728;-78
2021/04/11 04:05:05;;;;;;;18.87;13.37;;;6.90;99.90;;;;;;4986747;28;20234;-79
2021/04/11 04:07:42;;;;;;;21.30;14.37;;;6.80;99.90;;;;;;4987269;28;20180;-79
2021/04/11 04:10:09;;;;;;;16.57;12.67;;;6.80;99.90;;;;;;4985307;28;20208;-78
2021/04/11 04:12:55;;;;;;;17.73;13.07;;;6.90;99.90;;;;;;5002333;28;20196;-79
2021/04/11 04:15:39;;;;;;;19.27;13.50;;;6.90;99.90;;;;;;4985404;28;20279;-78
2021/04/11 04:18:24;;;;;;;19.13;12.27;;;6.80;99.90;;;;;;4985869;28;20210;-78
2021/04/11 04:21:08;;;;;;;19.57;13.00;;;6.90;99.90;;;;;;4986585;28;20286;-78
2021/04/11 04:24:03;;;;;;;22.43;13.27;;;6.80;99.90;;;;;;4986200;28;20275;-79
2021/04/11 04:27:00;;;;;;;17.73;11.50;;;6.90;99.90;;;;;;4985453;28;20560;-78
2021/04/11 04:29:27;;;;;;;17.07;12.13;;;6.90;99.90;;;;;;4985852;28;20207;-79
2021/04/11 04:32:17;;;;;;;18.17;13.13;;;6.90;99.90;;;;;;4986774;28;20181;-78
2021/04/11 04:35:04;;;;;;;20.90;13.77;;;6.80;99.90;;;;;;4984623;28;20541;-78
2021/04/11 04:37:45;;;;;;;21.50;12.67;;;6.80;99.90;;;;;;4986605;28;20180;-78
2021/04/11 04:40:38;;;;;;;17.07;11.60;;;6.90;99.90;;;;;;4984848;28;20180;-79
2021/04/11 04:43:14;;;;;;;18.73;12.63;;;6.90;99.90;;;;;;4985042;28;20239;-78
2021/04/11 04:46:06;;;;;;;19.33;13.00;;;6.90;99.90;;;;;;4984981;28;20238;-78
2021/04/11 04:48:42;;;;;;;17.97;12.90;;;6.90;99.90;;;;;;4985463;28;20686;-78
2021/04/11 04:51:34;;;;;;;17.93;12.63;;;6.90;99.90;;;;;;4985198;28;20184;-78
2021/04/11 04:54:14;;;;;;;16.20;12.30;;;7.00;99.90;;;;;;4988928;28;20714;-79
2021/04/11 04:56:58;;;;;;;16.93;12.47;;;7.00;99.90;;;;;;4984633;28;20179;-79
2021/04/11 04:59:26;;;;;;;17.50;11.90;;;7.00;99.90;;;;;;5000994;28;20234;-78
2021/04/11 05:02:06;;;;;;;16.30;10.77;;;7.00;99.90;;;;;;4985037;28;20203;-78
2021/04/11 05:04:35;;;;;;;15.20;11.07;;;7.00;99.90;;;;;;4984991;28;20176;-79
2021/04/11 05:07:11;;;;;;;19.00;12.77;;;7.00;99.90;;;;;;4984887;28;20184;-79
2021/04/11 05:09:48;;;;;;;15.47;11.50;;;7.00;99.90;;;;;;4984355;28;21034;-79
2021/04/11 05:12:19;;;;;;;15.73;11.60;;;7.10;99.90;;;;;;4985992;28;20283;-78
2021/04/11 05:14:54;;;;;;;16.70;11.60;;;7.10;99.90;;;;;;4984491;28;20191;-78
2021/04/11 05:17:29;;;;;;;17.53;11.97;;;7.10;99.90;;;;;;4984479;28;20184;-78
2021/04/11 05:20:01;;;;;;;16.90;11.87;;;7.10;99.90;;;;;;4983989;28;20238;-79
2021/04/11 05:22:36;;;;;;;16.63;11.50;;;7.20;99.90;;;;;;4984910;28;20187;-78
2021/04/11 05:25:12;;;;;;;15.13;11.47;;;7.20;99.90;;;;;;4984643;28;20192;-79
2021/04/11 05:27:51;;;;;;;14.50;10.07;;;7.20;99.90;;;;;;4983576;28;20196;-79
2021/04/11 05:30:28;;;;;;;19.13;11.50;;;7.20;99.90;;;;;;4984417;28;20184;-79
2021/04/11 05:32:54;;;;;;;18.50;12.67;;;7.30;99.90;;;;;;5000882;28;20203;-78
2021/04/11 05:35:20;;;;;;;14.80;11.03;;;7.40;99.90;;;;;;4984757;28;20363;-78
2021/04/11 05:38:12;;;;;;;15.20;9.93;;;7.50;99.90;;;;;;5000808;28;20176;-79
2021/04/11 05:40:52;;;;;;;16.03;11.03;;;7.60;99.90;;;;;;4985052;28;20180;-78
2021/04/11 05:43:24;;;;;;;16.40;11.47;;;7.60;99.90;;;;;;4985320;28;20202;-78
2021/04/11 05:46:16;;;;;;;17.97;11.63;;;7.70;99.90;;;;;;4984403;28;20294;-78
2021/04/11 05:48:51;;;;;;;15.70;10.97;;;7.70;99.90;;;;;;4986340;28;20254;-80
2021/04/11 05:51:55;;;;;;;15.77;12.03;;;7.70;99.90;;;;;;4984642;28;20199;-79
2021/04/11 05:54:48;;;;;;;15.17;10.43;;;7.80;99.90;;;;;;4985153;28;20215;-79
2021/04/11 05:57:26;;;;;;;17.00;12.23;;;7.90;99.90;;;;;;4983407;28;20311;-80
2021/04/11 06:00:04;;;;;;;16.93;11.77;;;7.90;99.90;;;;;;4984696;28;20203;-79
2021/04/11 06:02:52;;;;;;;15.97;11.50;;;7.90;99.90;;;;;;4985923;28;20234;-79
2021/04/11 06:05:20;;;;;;;18.00;11.03;;;7.90;99.90;;;;;;4985606;28;20393;-79
2021/04/11 06:07:59;;;;;;;16.50;11.07;;;7.90;99.90;;;;;;4984072;28;20207;-78
2021/04/11 06:10:40;;;;;;;15.20;11.33;;;7.90;99.90;;;;;;4984441;28;20936;-79
2021/04/11 06:13:12;;;;;;;17.17;10.63;;;7.90;99.90;;;;;;4983998;28;20310;-79
2021/04/11 06:16:03;;;;;;;15.67;10.07;;;8.00;99.90;;;;;;4983875;28;20176;-79
2021/04/11 06:18:30;;;;;;;18.37;11.10;;;8.10;99.90;;;;;;4984372;28;20294;-78
2021/04/11 06:20:56;;;;;;;14.80;10.63;;;8.20;99.90;;;;;;4984105;28;20184;-79
2021/04/11 06:23:47;;;;;;;17.27;11.70;;;8.30;99.90;;;;;;5000704;28;20215;-78
2021/04/11 06:26:26;;;;;;;15.83;11.20;;;8.50;99.90;;;;;;5001105;28;20207;-80
2021/04/11 06:29:20;;;;;;;14.50;10.80;;;8.60;99.90;;;;;;4985947;28;20208;-79
2021/04/11 06:32:03;;;;;;;16.63;11.20;;;8.70;99.90;;;;;;4983789;28;20191;-78
2021/04/11 06:34:38;;;;;;;15.07;10.57;;;9.00;99.90;;;;;;4984682;28;20246;-80
2021/04/11 06:37:09;;;;;;;16.80;11.33;;;9.20;99.90;;;;;;4983893;28;20183;-78
2021/04/11 06:39:40;;;;;;;14.20;9.67;;;9.30;99.90;;;;;;4984001;28;20295;-79
2021/04/11 06:42:43;;;;;;;14.33;10.13;;;9.30;99.90;;;;;;4983763;28;20216;-80
2021/04/11 06:45:14;;;;;;;13.90;9.70;;;9.40;99.90;;;;;;4983642;28;20180;-79
2021/04/11 06:48:16;;;;;;;13.20;8.97;;;9.40;99.90;;;;;;4983915;28;20204;-79
2021/04/11 06:51:07;;;;;;;13.63;9.67;;;9.50;99.90;;;;;;4983896;28;20211;-79
2021/04/11 06:54:09;;;;;;;14.10;9.63;;;9.80;99.90;;;;;;4986782;28;20370;-79
2021/04/11 06:56:49;;;;;;;11.00;9.23;;;10.00;99.90;;;;;;4987631;28;21226;-79
2021/04/11 07:00:00;;;;;;;13.80;8.93;;;10.40;99.90;;;;;;4988447;28;20211;-79
2021/04/11 07:03:01;;;;;;;10.50;8.27;;;10.70;99.90;;;;;;4965422;28;20218;-79
2021/04/11 07:06:04;;;;;;;15.97;9.47;;;11.10;99.90;;;;;;4986433;28;20219;-79
2021/04/11 07:08:39;;;;;;;13.03;8.83;;;11.20;99.90;;;;;;4986682;28;20212;-79
2021/04/11 07:11:19;;;;;;;10.97;8.87;;;11.20;99.90;;;;;;4986554;28;20257;-81
2021/04/11 07:14:29;;;;;;;12.80;8.60;;;11.10;99.90;;;;;;4986167;28;20204;-79
2021/04/11 07:17:15;;;;;;;11.57;7.83;;;11.10;99.90;;;;;;4986906;28;20208;-79
2021/04/11 07:20:00;;;;;;;11.10;8.07;;;10.90;99.90;;;;;;4986815;28;20196;-79
2021/04/11 07:22:54;;;;;;;11.60;8.40;;;10.80;99.90;;;;;;4987012;28;20185;-80
2021/04/11 07:25:25;;;;;;;10.50;7.83;;;11.00;99.90;;;;;;4986993;28;20191;-80
2021/04/11 07:28:28;;;;;;;11.37;8.10;;;11.30;99.90;;;;;;4987135;28;20343;-79
2021/04/11 07:31:06;;;;;;;13.70;8.57;;;11.50;99.90;;;;;;4987698;28;20187;-80
2021/04/11 07:34:00;;;;;;;11.73;8.10;;;11.80;99.90;;;;;;4987605;28;20279;-81
2021/04/11 07:36:38;;;;;;;11.17;7.83;;;12.10;99.90;;;;;;4987544;28;20191;-81
2021/04/11 07:39:25;;;;;;;9.37;7.03;;;12.40;99.90;;;;;;4988536;28;20204;-81
2021/04/11 07:42:14;;;;;;;9.50;7.90;;;12.50;99.90;;;;;;4989459;28;20263;-82
2021/04/11 07:44:58;;;;;;;12.00;8.60;;;12.50;99.90;;;;;;4987198;28;20793;-82
2021/04/11 07:47:37;;;;;;;9.97;7.77;;;12.50;99.90;;;;;;4987345;28;20674;-81
2021/04/11 07:50:25;;;;;;;7.50;6.60;;;12.50;99.90;;;;;;4988348;28;20208;-80
2021/04/11 07:53:03;;;;;;;8.70;6.35;;;12.70;99.90;;;;;;4992046;28;20215;-81
2021/04/11 07:55:40;;;;;;;7.15;5.68;;;13.10;99.90;;;;;;4987024;28;20235;-82
2021/04/11 07:58:11;;;;;;;10.80;8.10;;;13.20;99.90;;;;;;4987490;28;20208;-81
2021/04/11 08:01:00;;;;;;;9.13;7.22;;;13.50;99.90;;;;;;4988628;28;20184;-81
2021/04/11 08:04:02;;;;;;;9.32;7.50;;;13.70;99.90;;;;;;4988249;28;20661;-78
2021/04/11 08:07:29;;;;;;;9.00;6.70;;;13.80;99.90;;;;;;4987246;28;20203;-80
2021/04/11 08:10:30;;;;;;;7.40;5.97;;;13.80;99.90;;;;;;4995916;28;20224;-79
2021/04/11 08:13:14;;;;;;;6.40;5.75;;;13.90;99.90;;;;;;4979094;28;20609;-80
2021/04/11 08:15:46;;;;;;;7.13;5.90;;;14.00;99.90;;;;;;5002244;28;20741;-82
2021/04/11 08:18:38;;;;;;;8.15;6.95;;;14.10;99.90;;;;;;4986117;28;20247;-78
2021/04/11 08:21:41;;;;;;;9.25;6.57;;;14.10;99.90;;;;;;4986521;28;20203;-79
2021/04/11 08:24:44;;;;;;;6.75;5.22;;;14.30;99.90;;;;;;4988115;28;20175;-79
2021/04/11 08:27:44;;;;;;;5.80;4.88;;;14.40;99.90;;;;;;4987661;28;20300;-87
2021/04/11 08:30:32;;;;;;;4.40;3.65;;;14.40;99.90;;;;;;4987212;28;20856;-85
2021/04/11 08:33:07;;;;;;;7.72;6.13;;;14.50;99.90;;;;;;4986386;28;20204;-85
2021/04/11 08:36:12;;;;;;;8.27;6.70;;;14.50;99.90;;;;;;4985552;28;20183;-81
2021/04/11 08:39:01;;;;;;;8.35;5.75;;;14.60;99.90;;;;;;4986967;28;20208;-81
2021/04/11 08:41:32;;;;;;;6.95;5.90;;;14.70;99.90;;;;;;4987646;28;20171;-81
2021/04/11 08:44:07;;;;;;;8.15;5.25;;;14.70;99.90;;;;;;4985213;28;20196;-81
2021/04/11 08:47:07;;;;;;;6.20;5.05;;;14.60;99.90;;;;;;4986056;28;20371;-81
2021/04/11 08:49:34;;;;;;;6.05;4.97;;;14.70;99.90;;;;;;4985998;28;20764;-81
2021/04/11 08:52:17;;;;;;;6.75;5.05;;;14.80;99.90;;;;;;4985911;28;20193;-81
2021/04/11 08:55:15;;;;;;;9.95;5.97;;;15.10;99.90;;;;;;4987725;28;20184;-81
2021/04/11 08:57:59;;;;;;;3.72;3.15;;;15.30;99.90;;;;;;4986186;28;20204;-81
2021/04/11 09:00:33;;;;;;;5.78;4.00;;;15.60;99.90;;;;;;4987283;28;20188;-80
2021/04/11 09:03:18;;;;;;;3.35;2.50;;;15.90;99.90;;;;;;4986760;28;20188;-80
2021/04/11 09:06:08;;;;;;;2.38;1.95;;;16.10;99.90;;;;;;4986505;28;20226;-82
2021/04/11 09:08:56;;;;;;;3.30;2.30;;;16.00;99.90;;;;;;4984437;28;20200;-81
2021/04/11 09:11:43;;;;;;;2.78;2.30;;;16.00;99.90;;;;;;5001803;28;20196;-81
2021/04/11 09:14:27;;;;;;;3.35;2.17;;;15.90;99.90;;;;;;4986143;28;20667;-83
2021/04/11 09:16:58;;;;;;;1.90;1.80;;;15.80;99.90;;;;;;4984742;28;20176;-82
2021/04/11 09:19:49;;;;;;;2.00;1.73;;;15.80;99.90;;;;;;4986871;28;20208;-81
2021/04/11 09:22:25;;;;;;;2.13;1.20;;;15.70;99.90;;;;;;4985031;28;20239;-80
2021/04/11 09:25:10;;;;;;;1.92;1.50;;;15.60;99.90;;;;;;4984646;28;20202;-80
2021/04/11 09:27:51;;;;;;;1.50;1.40;;;15.60;99.90;;;;;;4985903;28;20215;-80
2021/04/11 09:30:44;;;;;;;2.40;1.55;;;15.70;99.90;;;;;;4986594;28;20179;-83
2021/04/11 09:33:16;;;;;;;1.88;1.00;;;15.30;99.90;;;;;;4986048;28;20259;-80
2021/04/11 09:35:42;;;;;;;1.48;1.35;;;15.40;99.90;;;;;;4983568;28;20674;-81
2021/04/11 09:38:15;;;;;;;2.00;1.42;;;15.40;99.90;;;;;;4984792;28;20358;-80
2021/04/11 09:40:49;;;;;;;1.30;1.20;;;15.40;99.90;;;;;;4985835;28;20172;-80
2021/04/11 09:43:45;;;;;;;1.33;1.00;;;15.50;99.90;;;;;;4985969;28;20262;-80
2021/04/11 09:46:33;;;;;;;1.40;1.20;;;16.10;99.90;;;;;;4984640;28;20184;-79
2021/04/11 09:49:25;;;;;;;1.45;1.35;;;16.50;99.90;;;;;;4984019;28;20208;-80
2021/04/11 09:52:22;;;;;;;1.50;1.20;;;16.40;99.90;;;;;;4984557;28;20180;-79
2021/04/11 09:55:03;;;;;;;1.50;1.20;;;16.40;99.90;;;;;;4984401;28;20243;-79
2021/04/11 09:58:04;;;;;;;1.50;1.27;;;16.30;99.90;;;;;;4985993;28;20176;-79
2021/04/11 10:00:39;;;;;;;2.55;1.50;;;16.10;99.90;;;;;;4985952;28;20183;-79
2021/04/11 10:03:25;;;;;;;2.85;1.40;;;15.70;99.90;;;;;;4984280;28;20176;-80
2021/04/11 10:06:03;;;;;;;1.83;1.63;;;15.40;99.90;;;;;;4985174;28;20188;-80
2021/04/11 10:08:43;;;;;;;1.48;1.38;;;15.00;99.90;;;;;;4984386;28;20282;-79
2021/04/11 10:11:15;;;;;;;1.58;1.40;;;14.70;99.90;;;;;;4985874;28;20262;-80
2021/04/11 10:13:40;;;;;;;1.65;1.40;;;14.50;99.90;;;;;;4985808;28;20197;-81
2021/04/11 10:16:22;;;;;;;2.03;1.83;;;14.60;99.90;;;;;;4986011;28;20199;-81
2021/04/11 10:19:16;;;;;;;2.47;1.38;;;14.60;99.90;;;;;;4986218;28;20200;-79
2021/04/11 10:22:04;;;;;;;1.50;1.40;;;14.60;99.90;;;;;;4999312;28;20568;-80
2021/04/11 10:25:09;;;;;;;1.83;1.40;;;14.70;99.90;;;;;;4984495;28;20183;-79
2021/04/11 10:27:43;;;;;;;1.27;1.17;;;14.80;99.90;;;;;;4986076;28;20746;-82
2021/04/11 10:30:12;;;;;;;2.03;1.77;;;14.80;99.90;;;;;;5004291;28;20242;-79
2021/04/11 10:33:02;;;;;;;1.85;1.48;;;14.80;99.90;;;;;;4989036;28;20208;-79
2021/04/11 10:36:14;;;;;;;1.73;1.52;;;15.00;99.90;;;;;;4987685;28;20180;-79
2021/04/11 10:38:45;;;;;;;2.78;1.65;;;15.20;99.90;;;;;;4985543;28;20217;-79
2021/04/11 10:41:37;;;;;;;1.27;1.17;;;15.50;99.90;;;;;;4986333;28;20199;-80
2021/04/11 10:44:24;;;;;;;1.73;1.30;;;16.10;99.90;;;;;;5003649;28;20191;-80
2021/04/11 10:47:08;;;;;;;4.15;1.90;;;16.20;99.90;;;;;;4989233;28;20172;-79
2021/04/11 10:49:52;;;;;;;2.63;1.50;;;16.20;99.90;;;;;;4987786;28;20242;-79
2021/04/11 10:52:21;;;;;;;1.60;1.50;;;16.10;99.90;;;;;;4989686;28;20227;-79
2021/04/11 10:55:08;;;;;;;2.13;1.60;;;15.90;99.90;;;;;;4988568;28;20184;-79
2021/04/11 10:57:55;;;;;;;2.17;1.55;;;15.90;99.90;;;;;;4988616;28;20303;-81
2021/04/11 11:01:05;;;;;;;1.65;1.20;;;15.80;99.90;;;;;;4985898;28;20176;-79
2021/04/11 11:03:55;;;;;;;1.65;1.33;;;16.10;99.90;;;;;;4987286;28;20180;-82
2021/04/11 11:06:33;;;;;;;1.73;1.63;;;16.10;99.90;;;;;;4985347;28;20565;-78
2021/04/11 11:09:19;;;;;;;1.90;1.42;;;16.00;99.90;;;;;;4988639;28;21185;-77
2021/04/11 11:12:11;;;;;;;1.70;1.60;;;15.70;99.90;;;;;;4988701;28;20176;-78
2021/04/11 11:15:04;;;;;;;3.50;2.13;;;15.60;99.90;;;;;;4987889;28;20378;-79
2021/04/11 11:18:12;;;;;;;2.50;1.55;;;15.60;99.90;;;;;;4988828;28;20251;-79
2021/04/11 11:20:51;;;;;;;1.58;1.42;;;15.80;99.90;;;;;;4987009;28;20318;-78
2021/04/11 11:23:35;;;;;;;2.08;1.95;;;16.10;99.90;;;;;;4988305;28;20211;-79
2021/04/11 11:26:43;;;;;;;2.58;2.13;;;16.10;99.90;;;;;;4987357;28;20184;-79
2021/04/11 11:29:18;;;;;;;2.60;2.05;;;15.80;99.90;;;;;;4986111;28;20270;-79
2021/04/11 11:32:02;;;;;;;2.30;2.10;;;15.50;99.90;;;;;;4986693;28;20340;-79
2021/04/11 11:34:48;;;;;;;1.92;1.73;;;15.40;99.90;;;;;;4986372;28;20204;-79
2021/04/11 11:37:39;;;;;;;2.53;2.20;;;15.10;99.90;;;;;;4987804;28;20180;-80
2021/04/11 11:40:19;;;;;;;1.88;1.55;;;14.80;99.90;;;;;;4985576;28;20755;-78
2021/04/11 11:43:19;;;;;;;1.55;1.45;;;14.40;99.90;;;;;;4990646;28;20219;-78
2021/04/11 11:46:06;;;;;;;2.75;1.55;;;14.40;99.90;;;;;;4988449;28;20176;-79
2021/04/11 11:48:56;;;;;;;1.30;1.08;;;14.30;99.90;;;;;;4990055;28;20204;-78
2021/04/11 11:51:29;;;;;;;2.28;1.73;;;14.50;99.90;;;;;;4990229;28;20243;-78
2021/04/11 11:54:19;;;;;;;1.17;1.08;;;14.40;99.90;;;;;;4989418;28;20256;-77
2021/04/11 11:57:02;;;;;;;1.40;1.30;;;14.30;99.90;;;;;;5005475;28;20208;-78
2021/04/11 11:59:36;;;;;;;1.33;1.10;;;14.40;99.90;;;;;;4988675;28;20223;-78
2021/04/11 12:02:13;;;;;;;1.70;1.30;;;14.50;99.90;;;;;;4989006;28;20187;-84
2021/04/11 12:05:01;;;;;;;1.10;0.85;;;14.70;99.90;;;;;;4986684;28;20218;-81
2021/04/11 12:07:55;;;;;;;1.20;1.10;;;14.90;99.90;;;;;;4985516;28;20185;-81
2021/04/11 12:10:50;;;;;;;0.90;0.90;;;14.70;99.90;;;;;;4985569;28;20295;-81
2021/04/11 12:13:31;;;;;;;1.65;1.20;;;14.60;99.90;;;;;;4984494;28;20215;-78
2021/04/11 12:16:02;;;;;;;2.33;1.30;;;14.60;99.90;;;;;;4986723;28;20172;-82
2021/04/11 12:18:54;;;;;;;1.10;0.98;;;14.60;99.90;;;;;;4985307;28;20828;-81
2021/04/11 12:21:31;;;;;;;1.52;0.98;;;14.80;99.90;;;;;;4996074;28;20200;-82
2021/04/11 12:24:22;;;;;;;1.30;1.20;;;14.50;99.90;;;;;;4985283;28;20263;-81
2021/04/11 12:26:58;;;;;;;1.20;1.10;;;14.20;99.90;;;;;;4989856;28;20288;-82
2021/04/11 12:29:30;;;;;;;0.75;0.75;;;13.80;99.90;;;;;;5002139;28;20266;-81
2021/04/11 12:31:59;;;;;;;0.60;0.60;;;13.40;99.90;;;;;;4986826;28;20204;-81
2021/04/11 12:34:24;;;;;;;0.90;0.90;;;13.20;99.90;;;;;;4986067;28;20213;-82
2021/04/11 12:37:17;;;;;;;1.10;0.93;;;13.00;99.90;;;;;;4984662;28;20183;-81
2021/04/11 12:39:45;;;;;;;0.90;0.90;;;12.70;99.90;;;;;;4984845;28;20690;-81
2021/04/11 12:42:20;;;;;;;1.92;1.10;;;12.50;99.90;;;;;;4985289;28;20192;-82
2021/04/11 12:45:25;;;;;;;0.70;0.70;;;12.30;99.90;;;;;;4985843;28;20180;-82
2021/04/11 12:48:28;;;;;;;1.25;0.80;;;12.30;99.90;;;;;;4983742;28;20200;-82
2021/04/11 12:51:06;;;;;;;1.00;0.90;;;12.40;99.90;;;;;;4984141;28;20188;-82
2021/04/11 12:54:01;;;;;;;0.85;0.85;;;12.60;99.90;;;;;;4984742;28;21189;-82
2021/04/11 12:56:29;;;;;;;1.40;1.20;;;12.50;99.90;;;;;;4984404;28;20176;-81
2021/04/11 12:59:00;;;;;;;0.85;0.82;;;12.60;99.90;;;;;;4985118;28;20284;-81
2021/04/11 13:01:50;;;;;;;0.70;0.68;;;12.70;99.90;;;;;;4984314;28;20258;-82
2021/04/11 13:04:31;;;;;;;0.82;0.82;;;12.90;99.90;;;;;;4984165;28;20203;-82
2021/04/11 13:07:12;;;;;;;2.38;1.45;;;13.20;99.90;;;;;;4984434;28;20239;-81
2021/04/11 13:09:53;;;;;;;2.50;2.30;;;12.90;99.90;;;;;;4984340;28;20224;-82
2021/04/11 13:12:54;;;;;;;2.93;2.63;;;12.40;99.90;;;;;;4984825;28;20274;-81
2021/04/11 13:15:31;;;;;;;2.10;1.90;;;12.20;99.90;;;;;;4985466;28;20186;-81
2021/04/11 13:17:57;;;;;;;2.83;2.50;;;11.90;99.90;;;;;;4984186;28;20176;-81
2021/04/11 13:20:30;;;;;;;4.28;3.08;;;11.80;99.90;;;;;;4983432;28;20684;-80
2021/04/11 13:23:20;;;;;;;3.47;2.80;;;11.60;99.90;;;;;;5000943;28;20677;-81
2021/04/11 13:26:09;;;;;;;6.00;4.10;;;11.40;99.90;;;;;;4983184;28;20185;-81
2021/04/11 13:28:53;;;;;;;6.07;4.23;;;11.10;99.90;;;;;;4986567;28;20274;-81
2021/04/11 13:31:42;;;;;;;5.60;3.73;;;10.90;99.90;;;;;;5000513;28;20312;-82
2021/04/11 13:34:17;;;;;;;6.17;4.10;;;10.70;99.90;;;;;;4984485;28;20618;-83
2021/04/11 13:36:47;;;;;;;9.40;6.23;;;10.50;99.90;;;;;;4984416;28;20175;-81
2021/04/11 13:39:19;;;;;;;6.20;4.50;;;10.30;99.90;;;;;;4983924;28;20203;-81
2021/04/11 13:41:54;;;;;;;4.33;3.47;;;10.20;99.90;;;;;;4983890;28;20182;-81